This is the latest recevied weather packets stored in our database for station/object N5SRF. If no packets are shown the sender has not sent any weather packets the latest 1 day(s).
| Time | Temp. | Humidity | Pressure | Rain* | Wind** | Luminosity | Snow |
|---|---|---|---|---|---|---|---|
| 1778025016 | 27.22° C | 86% | 1010.8 hPa | 0 mm | - | 30 W/m² | - |
| 1778024108 | 27.78° C | 83% | 1010.6 hPa | 0 mm | - | 91 W/m² | - |
| 1778023200 | 27.78° C | 82% | 1010.6 hPa | 0 mm | - | 88 W/m² | - |
| 1778022897 | 27.78° C | 82% | 1010.8 hPa | 0 mm | - | 131 W/m² | - |
| 1778021079 | 28.33° C | 81% | 1010.7 hPa | 0 mm | - | 137 W/m² | - |
| 1778020776 | 28.33° C | 80% | 1010.6 hPa | 0 mm | - | 110 W/m² | - |
| 1778020473 | 28.33° C | 79% | 1010.7 hPa | 0 mm | - | 151 W/m² | - |
| 1778019866 | 28.89° C | 79% | 1011.1 hPa | 0 mm | - | 143 W/m² | - |
| 1778018653 | 28.89° C | 80% | 1010.8 hPa | 0 mm | - | 152 W/m² | - |
| 1778018351 | 28.33° C | 79% | 1010.7 hPa | 0 mm | - | 406 W/m² | - |
| 1778015019 | 29.44° C | 77% | 1011.3 hPa | 0 mm | - | 408 W/m² | - |
| 1778014414 | 29.44° C | 78% | 1011.5 hPa | 0 mm | - | 474 W/m² | - |
| 1778012898 | 28.89° C | 80% | 1012 hPa | 0 mm | - | 776 W/m² | - |
| 1778011687 | 28.33° C | 78% | 1012.4 hPa | 0 mm | - | 465 W/m² | - |
| 1778007746 | 27.78° C | 82% | 1012.8 hPa | 0 mm | - | 417 W/m² | - |
| 1778005616 | 27.78° C | 82% | 1013 hPa | 0 mm | - | 365 W/m² | - |
| 1778004096 | 26.67° C | 84% | 1013.1 hPa | 0 mm | - | 222 W/m² | - |
| 1778002881 | 27.22° C | 83% | 1013.3 hPa | 0 mm | - | 273 W/m² | - |
| 1778002577 | 27.22° C | 83% | 1013.2 hPa | 0 mm | - | 234 W/m² | - |
| 1778002274 | 26.67° C | 85% | 1013.1 hPa | 0 mm | - | 304 W/m² | - |
| 1777998937 | 25.56° C | 88% | 1013.6 hPa | 0 mm | - | 137 W/m² | - |
| 1777998633 | 25.56° C | 86% | 1013.4 hPa | 0 mm | - | 145 W/m² | - |
| 1777998024 | 25.56° C | 87% | 1013.6 hPa | 0 mm | - | 175 W/m² | - |
| 1777993777 | 25° C | 88% | 1013.3 hPa | 0 mm | - | 175 W/m² | - |
| 1777993468 | 25° C | 87% | 1013.2 hPa | 0 mm | - | 158 W/m² | - |
* Rain latest hour (hover to see other rain measurements)
** Current wind speed in m/s (hover to see current wind gust speed)